sensor_id;sensor_type;location;lat;lon;timestamp;pressure;altitude;pressure_sealevel;temperature;humidity
13952;BME280;39535;52.192;9.886;2022-12-18T00:01:56;102352.88;;;-4.88;79.50
13952;BME280;39535;52.192;9.886;2022-12-18T00:04:24;102369.97;;;-4.87;79.32
13952;BME280;39535;52.192;9.886;2022-12-18T00:06:52;102362.97;;;-4.90;79.35
13952;BME280;39535;52.192;9.886;2022-12-18T00:09:19;102360.41;;;-4.90;79.69
13952;BME280;39535;52.192;9.886;2022-12-18T00:11:46;102352.88;;;-4.88;79.63
13952;BME280;39535;52.192;9.886;2022-12-18T00:14:13;102345.03;;;-4.91;79.58
13952;BME280;39535;52.192;9.886;2022-12-18T00:16:40;102342.03;;;-4.86;79.57
13952;BME280;39535;52.192;9.886;2022-12-18T00:19:09;102342.03;;;-4.86;79.88
13952;BME280;39535;52.192;9.886;2022-12-18T00:21:36;102345.13;;;-4.90;80.61
13952;BME280;39535;52.192;9.886;2022-12-18T00:24:08;102333.75;;;-4.83;80.72
13952;BME280;39535;52.192;9.886;2022-12-18T00:26:36;102322.53;;;-4.97;80.98
13952;BME280;39535;52.192;9.886;2022-12-18T00:29:06;102313.56;;;-4.92;81.30
13952;BME280;39535;52.192;9.886;2022-12-18T00:31:33;102309.91;;;-4.84;80.92
13952;BME280;39535;52.192;9.886;2022-12-18T00:33:59;102311.72;;;-4.71;81.46
13952;BME280;39535;52.192;9.886;2022-12-18T00:36:28;102313.47;;;-4.70;81.01
13952;BME280;39535;52.192;9.886;2022-12-18T00:38:56;102311.16;;;-4.67;80.56
13952;BME280;39535;52.192;9.886;2022-12-18T00:41:25;102317.16;;;-4.66;80.68
13952;BME280;39535;52.192;9.886;2022-12-18T00:44:10;102320.38;;;-4.69;80.50
13952;BME280;39535;52.192;9.886;2022-12-18T00:46:37;102323.16;;;-4.66;80.41
13952;BME280;39535;52.192;9.886;2022-12-18T00:49:04;102335.97;;;-4.64;81.06
13952;BME280;39535;52.192;9.886;2022-12-18T00:51:30;102336.22;;;-4.61;81.00
13952;BME280;39535;52.192;9.886;2022-12-18T00:53:57;102340.88;;;-4.55;80.32
13952;BME280;39535;52.192;9.886;2022-12-18T00:56:25;102347.72;;;-4.54;80.15
13952;BME280;39535;52.192;9.886;2022-12-18T00:58:51;102353.81;;;-4.52;79.76
13952;BME280;39535;52.192;9.886;2022-12-18T01:01:18;102357.94;;;-4.54;79.89
13952;BME280;39535;52.192;9.886;2022-12-18T01:03:45;102355.63;;;-4.51;79.81
13952;BME280;39535;52.192;9.886;2022-12-18T01:06:13;102364.94;;;-4.52;79.59
13952;BME280;39535;52.192;9.886;2022-12-18T01:08:39;102368.25;;;-4.53;79.54
13952;BME280;39535;52.192;9.886;2022-12-18T01:11:07;102372.34;;;-4.55;79.75
13952;BME280;39535;52.192;9.886;2022-12-18T01:13:35;102378.19;;;-4.56;79.47
13952;BME280;39535;52.192;9.886;2022-12-18T01:16:01;102384.41;;;-4.52;79.44
13952;BME280;39535;52.192;9.886;2022-12-18T01:18:28;102392.16;;;-4.51;78.89
13952;BME280;39535;52.192;9.886;2022-12-18T01:20:55;102401.47;;;-4.51;79.18
13952;BME280;39535;52.192;9.886;2022-12-18T01:23:21;102412.56;;;-4.51;78.71
13952;BME280;39535;52.192;9.886;2022-12-18T01:25:47;102428.94;;;-4.59;79.39
13952;BME280;39535;52.192;9.886;2022-12-18T01:28:14;102417.88;;;-4.60;79.03
13952;BME280;39535;52.192;9.886;2022-12-18T01:30:42;102418.31;;;-4.65;79.10
13952;BME280;39535;52.192;9.886;2022-12-18T01:33:08;102421.81;;;-4.75;79.38
13952;BME280;39535;52.192;9.886;2022-12-18T01:35:40;102418.59;;;-4.72;79.24
13952;BME280;39535;52.192;9.886;2022-12-18T01:38:06;102416.19;;;-4.71;79.46
13952;BME280;39535;52.192;9.886;2022-12-18T01:40:33;102417.06;;;-4.70;79.50
13952;BME280;39535;52.192;9.886;2022-12-18T01:42:59;102419.38;;;-4.73;79.43
13952;BME280;39535;52.192;9.886;2022-12-18T01:45:27;102428.56;;;-4.75;79.33
13952;BME280;39535;52.192;9.886;2022-12-18T01:47:57;102430.22;;;-4.76;79.20
13952;BME280;39535;52.192;9.886;2022-12-18T01:50:27;102430.47;;;-4.73;79.41
13952;BME280;39535;52.192;9.886;2022-12-18T01:52:58;102426.44;;;-4.81;79.29
13952;BME280;39535;52.192;9.886;2022-12-18T01:55:28;102424.44;;;-4.85;79.34
13952;BME280;39535;52.192;9.886;2022-12-18T01:57:57;102426.75;;;-4.88;78.79
13952;BME280;39535;52.192;9.886;2022-12-18T02:00:26;102424.88;;;-4.91;79.68
13952;BME280;39535;52.192;9.886;2022-12-18T02:02:53;102420.06;;;-4.98;79.63
13952;BME280;39535;52.192;9.886;2022-12-18T02:05:29;102419.53;;;-4.94;79.51
13952;BME280;39535;52.192;9.886;2022-12-18T02:08:03;102412.00;;;-4.92;79.78
13952;BME280;39535;52.192;9.886;2022-12-18T02:10:41;102411.88;;;-4.94;79.16
13952;BME280;39535;52.192;9.886;2022-12-18T02:13:13;102418.91;;;-4.91;79.48
13952;BME280;39535;52.192;9.886;2022-12-18T02:15:49;102419.31;;;-4.97;79.42
13952;BME280;39535;52.192;9.886;2022-12-18T02:18:20;102413.56;;;-4.94;79.38
13952;BME280;39535;52.192;9.886;2022-12-18T02:20:54;102412.56;;;-4.96;79.24
13952;BME280;39535;52.192;9.886;2022-12-18T02:23:36;102414.50;;;-5.04;79.75
13952;BME280;39535;52.192;9.886;2022-12-18T02:26:14;102408.22;;;-4.97;79.55
13952;BME280;39535;52.192;9.886;2022-12-18T02:28:44;102404.78;;;-4.98;79.61
13952;BME280;39535;52.192;9.886;2022-12-18T02:31:16;102386.09;;;-4.99;80.13
13952;BME280;39535;52.192;9.886;2022-12-18T02:33:46;102404.75;;;-5.10;79.26
13952;BME280;39535;52.192;9.886;2022-12-18T02:36:16;102395.81;;;-5.05;79.98
13952;BME280;39535;52.192;9.886;2022-12-18T02:38:45;102391.59;;;-5.04;79.45
13952;BME280;39535;52.192;9.886;2022-12-18T02:41:14;102398.66;;;-5.12;79.30
13952;BME280;39535;52.192;9.886;2022-12-18T02:43:46;102391.00;;;-5.12;79.57
13952;BME280;39535;52.192;9.886;2022-12-18T02:46:25;102393.56;;;-5.12;79.69
13952;BME280;39535;52.192;9.886;2022-12-18T02:48:57;102396.63;;;-5.16;79.25
13952;BME280;39535;52.192;9.886;2022-12-18T02:51:31;102395.44;;;-5.21;79.19
13952;BME280;39535;52.192;9.886;2022-12-18T02:54:07;102387.25;;;-5.17;79.65
13952;BME280;39535;52.192;9.886;2022-12-18T02:56:39;102389.00;;;-5.16;79.14
13952;BME280;39535;52.192;9.886;2022-12-18T02:59:13;102401.59;;;-5.18;79.72
13952;BME280;39535;52.192;9.886;2022-12-18T03:01:44;102401.69;;;-5.28;79.49
13952;BME280;39535;52.192;9.886;2022-12-18T03:04:20;102396.25;;;-5.32;79.34
13952;BME280;39535;52.192;9.886;2022-12-18T03:06:53;102389.28;;;-5.35;80.12
13952;BME280;39535;52.192;9.886;2022-12-18T03:09:24;102382.66;;;-5.33;79.62
13952;BME280;39535;52.192;9.886;2022-12-18T03:12:00;102385.28;;;-5.31;80.02
13952;BME280;39535;52.192;9.886;2022-12-18T03:14:49;102380.84;;;-5.34;79.83
13952;BME280;39535;52.192;9.886;2022-12-18T03:17:20;102370.47;;;-5.37;80.08
13952;BME280;39535;52.192;9.886;2022-12-18T03:19:49;102366.25;;;-5.36;80.07
13952;BME280;39535;52.192;9.886;2022-12-18T03:22:18;102375.41;;;-5.39;79.80
13952;BME280;39535;52.192;9.886;2022-12-18T03:24:45;102373.41;;;-5.43;79.80
13952;BME280;39535;52.192;9.886;2022-12-18T03:27:15;102355.47;;;-5.44;80.40
13952;BME280;39535;52.192;9.886;2022-12-18T03:29:46;102340.53;;;-5.40;80.68
13952;BME280;39535;52.192;9.886;2022-12-18T03:32:18;102330.25;;;-5.41;81.67
13952;BME280;39535;52.192;9.886;2022-12-18T03:34:50;102312.44;;;-5.41;81.68
13952;BME280;39535;52.192;9.886;2022-12-18T03:37:18;102302.38;;;-5.40;81.85
13952;BME280;39535;52.192;9.886;2022-12-18T03:39:44;102288.78;;;-5.40;82.10
13952;BME280;39535;52.192;9.886;2022-12-18T03:42:17;102280.59;;;-5.36;82.77
13952;BME280;39535;52.192;9.886;2022-12-18T03:44:53;102262.03;;;-5.35;82.77
13952;BME280;39535;52.192;9.886;2022-12-18T03:47:27;102259.28;;;-5.26;82.70
13952;BME280;39535;52.192;9.886;2022-12-18T03:49:58;102254.44;;;-5.23;82.69
13952;BME280;39535;52.192;9.886;2022-12-18T03:52:32;102261.41;;;-5.21;82.18
13952;BME280;39535;52.192;9.886;2022-12-18T03:55:03;102256.41;;;-5.19;82.28
13952;BME280;39535;52.192;9.886;2022-12-18T03:57:32;102237.25;;;-5.14;82.54
13952;BME280;39535;52.192;9.886;2022-12-18T04:00:03;102237.06;;;-5.05;83.09
13952;BME280;39535;52.192;9.886;2022-12-18T04:02:31;102237.06;;;-5.05;82.65
13952;BME280;39535;52.192;9.886;2022-12-18T04:05:03;102248.25;;;-5.03;82.52
13952;BME280;39535;52.192;9.886;2022-12-18T04:07:31;102252.91;;;-5.09;82.13
13952;BME280;39535;52.192;9.886;2022-12-18T04:09:59;102255.97;;;-5.02;82.51
13952;BME280;39535;52.192;9.886;2022-12-18T04:12:28;102253.97;;;-5.06;82.37
13952;BME280;39535;52.192;9.886;2022-12-18T04:14:56;102262.75;;;-5.02;82.20
13952;BME280;39535;52.192;9.886;2022-12-18T04:17:23;102271.75;;;-4.95;82.09
13952;BME280;39535;52.192;9.886;2022-12-18T04:19:50;102271.06;;;-4.93;82.12
13952;BME280;39535;52.192;9.886;2022-12-18T04:22:16;102276.84;;;-4.95;82.10
13952;BME280;39535;52.192;9.886;2022-12-18T04:24:43;102284.78;;;-5.03;82.35
13952;BME280;39535;52.192;9.886;2022-12-18T04:27:09;102281.47;;;-4.90;81.76
13952;BME280;39535;52.192;9.886;2022-12-18T04:29:35;102287.78;;;-4.85;81.45
13952;BME280;39535;52.192;9.886;2022-12-18T04:32:04;102289.03;;;-4.80;81.03
13952;BME280;39535;52.192;9.886;2022-12-18T04:34:30;102299.00;;;-4.71;80.91
13952;BME280;39535;52.192;9.886;2022-12-18T04:36:56;102315.28;;;-4.69;80.73
13952;BME280;39535;52.192;9.886;2022-12-18T04:39:24;102320.06;;;-4.62;80.36
13952;BME280;39535;52.192;9.886;2022-12-18T04:41:50;102334.22;;;-4.65;80.14
13952;BME280;39535;52.192;9.886;2022-12-18T04:44:17;102340.31;;;-4.63;79.81
13952;BME280;39535;52.192;9.886;2022-12-18T04:46:43;102352.06;;;-4.65;79.52
13952;BME280;39535;52.192;9.886;2022-12-18T04:49:11;102362.69;;;-4.71;79.25
13952;BME280;39535;52.192;9.886;2022-12-18T04:51:38;102373.75;;;-4.70;79.86
13952;BME280;39535;52.192;9.886;2022-12-18T04:54:04;102373.19;;;-4.66;79.83
13952;BME280;39535;52.192;9.886;2022-12-18T04:56:31;102376.09;;;-4.62;79.50
13952;BME280;39535;52.192;9.886;2022-12-18T04:58:58;102383.84;;;-4.60;79.19
13952;BME280;39535;52.192;9.886;2022-12-18T05:01:24;102386.94;;;-4.52;79.57
13952;BME280;39535;52.192;9.886;2022-12-18T05:03:51;102399.47;;;-4.67;79.29
13952;BME280;39535;52.192;9.886;2022-12-18T05:06:19;102407.88;;;-4.68;79.67
13952;BME280;39535;52.192;9.886;2022-12-18T05:08:46;102402.88;;;-4.67;78.85
13952;BME280;39535;52.192;9.886;2022-12-18T05:11:14;102406.31;;;-4.66;79.23
13952;BME280;39535;52.192;9.886;2022-12-18T05:13:41;102405.19;;;-4.70;78.82
13952;BME280;39535;52.192;9.886;2022-12-18T05:16:08;102407.66;;;-4.71;79.27
13952;BME280;39535;52.192;9.886;2022-12-18T05:18:34;102412.84;;;-4.70;78.94
13952;BME280;39535;52.192;9.886;2022-12-18T05:21:01;102428.56;;;-4.75;79.18
13952;BME280;39535;52.192;9.886;2022-12-18T05:23:29;102417.38;;;-4.77;79.19
13952;BME280;39535;52.192;9.886;2022-12-18T05:25:57;102417.03;;;-4.82;79.20
13952;BME280;39535;52.192;9.886;2022-12-18T05:28:26;102413.28;;;-4.75;79.46
13952;BME280;39535;52.192;9.886;2022-12-18T05:30:54;102428.66;;;-4.74;79.25
13952;BME280;39535;52.192;9.886;2022-12-18T05:33:22;102422.50;;;-4.66;79.00
13952;BME280;39535;52.192;9.886;2022-12-18T05:35:50;102434.16;;;-4.57;78.79
13952;BME280;39535;52.192;9.886;2022-12-18T05:38:17;102437.81;;;-4.54;78.33
13952;BME280;39535;52.192;9.886;2022-12-18T05:40:45;102447.47;;;-4.50;78.45
13952;BME280;39535;52.192;9.886;2022-12-18T05:43:11;102456.34;;;-4.45;78.41
13952;BME280;39535;52.192;9.886;2022-12-18T05:45:38;102464.84;;;-4.44;77.48
13952;BME280;39535;52.192;9.886;2022-12-18T05:48:06;102476.31;;;-4.39;77.62
13952;BME280;39535;52.192;9.886;2022-12-18T05:50:34;102481.44;;;-4.27;77.71
13952;BME280;39535;52.192;9.886;2022-12-18T05:53:00;102497.28;;;-4.31;76.61
13952;BME280;39535;52.192;9.886;2022-12-18T05:55:27;102520.88;;;-4.34;76.64
13952;BME280;39535;52.192;9.886;2022-12-18T05:57:54;102527.44;;;-4.26;76.39
13952;BME280;39535;52.192;9.886;2022-12-18T06:00:21;102530.19;;;-4.23;76.51
13952;BME280;39535;52.192;9.886;2022-12-18T06:02:47;102556.03;;;-4.30;76.09
13952;BME280;39535;52.192;9.886;2022-12-18T06:05:14;102572.91;;;-4.20;75.96
13952;BME280;39535;52.192;9.886;2022-12-18T06:07:40;102582.53;;;-4.28;76.77
13952;BME280;39535;52.192;9.886;2022-12-18T06:10:07;102573.41;;;-4.24;77.08
13952;BME280;39535;52.192;9.886;2022-12-18T06:12:34;102566.69;;;-4.24;76.41
13952;BME280;39535;52.192;9.886;2022-12-18T06:15:01;102566.91;;;-4.21;76.22
13952;BME280;39535;52.192;9.886;2022-12-18T06:17:28;102564.81;;;-4.14;76.68
13952;BME280;39535;52.192;9.886;2022-12-18T06:19:55;102564.25;;;-4.22;76.25
13952;BME280;39535;52.192;9.886;2022-12-18T06:22:21;102574.66;;;-4.19;76.54
13952;BME280;39535;52.192;9.886;2022-12-18T06:24:48;102574.00;;;-4.16;76.67
13952;BME280;39535;52.192;9.886;2022-12-18T06:27:14;102574.44;;;-4.10;76.04
13952;BME280;39535;52.192;9.886;2022-12-18T06:29:41;102575.16;;;-4.01;75.82
13952;BME280;39535;52.192;9.886;2022-12-18T06:32:09;102580.03;;;-4.04;75.64
13952;BME280;39535;52.192;9.886;2022-12-18T06:34:37;102578.69;;;-4.11;76.67
13952;BME280;39535;52.192;9.886;2022-12-18T06:37:03;102575.13;;;-4.13;76.26
13952;BME280;39535;52.192;9.886;2022-12-18T06:39:30;102577.22;;;-4.19;76.34
13952;BME280;39535;52.192;9.886;2022-12-18T06:41:56;102565.75;;;-4.24;76.50
13952;BME280;39535;52.192;9.886;2022-12-18T06:44:23;102570.44;;;-4.19;76.35
13952;BME280;39535;52.192;9.886;2022-12-18T06:46:49;102561.78;;;-4.21;76.36
13952;BME280;39535;52.192;9.886;2022-12-18T06:49:17;102576.22;;;-4.21;75.87
13952;BME280;39535;52.192;9.886;2022-12-18T06:51:43;102590.66;;;-4.44;75.69
13952;BME280;39535;52.192;9.886;2022-12-18T06:54:10;102589.81;;;-4.54;76.77
13952;BME280;39535;52.192;9.886;2022-12-18T06:56:36;102576.13;;;-4.67;76.74
13952;BME280;39535;52.192;9.886;2022-12-18T06:59:03;102561.69;;;-4.78;77.27
13952;BME280;39535;52.192;9.886;2022-12-18T07:01:29;102544.91;;;-4.86;77.77
13952;BME280;39535;52.192;9.886;2022-12-18T07:03:56;102533.91;;;-4.75;77.98
13952;BME280;39535;52.192;9.886;2022-12-18T07:06:25;102524.06;;;-4.70;78.05
13952;BME280;39535;52.192;9.886;2022-12-18T07:08:53;102530.41;;;-4.65;78.33
13952;BME280;39535;52.192;9.886;2022-12-18T07:11:20;102515.44;;;-4.61;78.20
13952;BME280;39535;52.192;9.886;2022-12-18T07:13:46;102511.38;;;-4.59;77.98
13952;BME280;39535;52.192;9.886;2022-12-18T07:16:15;102509.81;;;-4.56;78.49
13952;BME280;39535;52.192;9.886;2022-12-18T07:18:41;102504.59;;;-4.58;78.48
13952;BME280;39535;52.192;9.886;2022-12-18T07:21:12;102495.91;;;-4.50;78.56
13952;BME280;39535;52.192;9.886;2022-12-18T07:23:41;102502.75;;;-4.49;78.94
13952;BME280;39535;52.192;9.886;2022-12-18T07:26:10;102491.72;;;-4.37;78.70
13952;BME280;39535;52.192;9.886;2022-12-18T07:28:38;102493.94;;;-4.30;78.64
13952;BME280;39535;52.192;9.886;2022-12-18T07:31:07;102498.47;;;-4.26;78.70
13952;BME280;39535;52.192;9.886;2022-12-18T07:33:34;102501.28;;;-4.23;78.38
13952;BME280;39535;52.192;9.886;2022-12-18T07:36:02;102496.84;;;-4.26;78.89
13952;BME280;39535;52.192;9.886;2022-12-18T07:38:32;102488.75;;;-4.20;78.61
13952;BME280;39535;52.192;9.886;2022-12-18T07:41:02;102490.19;;;-4.24;79.37
13952;BME280;39535;52.192;9.886;2022-12-18T07:43:32;102486.09;;;-4.22;79.12
13952;BME280;39535;52.192;9.886;2022-12-18T07:45:59;102481.63;;;-4.24;79.92
13952;BME280;39535;52.192;9.886;2022-12-18T07:48:27;102477.19;;;-4.27;79.65
13952;BME280;39535;52.192;9.886;2022-12-18T07:50:53;102470.00;;;-4.21;79.58
13952;BME280;39535;52.192;9.886;2022-12-18T07:53:20;102459.03;;;-4.20;79.82
13952;BME280;39535;52.192;9.886;2022-12-18T07:55:47;102457.81;;;-4.13;79.70
13952;BME280;39535;52.192;9.886;2022-12-18T07:58:15;102444.75;;;-4.06;79.62
13952;BME280;39535;52.192;9.886;2022-12-18T08:00:42;102453.84;;;-4.09;79.52
13952;BME280;39535;52.192;9.886;2022-12-18T08:03:17;102448.19;;;-4.05;79.64
13952;BME280;39535;52.192;9.886;2022-12-18T08:05:45;102445.31;;;-3.98;79.61
13952;BME280;39535;52.192;9.886;2022-12-18T08:08:12;102440.66;;;-3.92;79.17
13952;BME280;39535;52.192;9.886;2022-12-18T08:10:38;102449.50;;;-3.87;79.29
13952;BME280;39535;52.192;9.886;2022-12-18T08:13:05;102460.06;;;-3.82;78.88
13952;BME280;39535;52.192;9.886;2022-12-18T08:15:35;102467.47;;;-3.85;78.99
13952;BME280;39535;52.192;9.886;2022-12-18T08:18:01;102456.41;;;-3.74;78.91
13952;BME280;39535;52.192;9.886;2022-12-18T08:20:28;102462.38;;;-3.73;78.75
13952;BME280;39535;52.192;9.886;2022-12-18T08:22:54;102459.81;;;-3.73;78.70
13952;BME280;39535;52.192;9.886;2022-12-18T08:25:23;102460.63;;;-3.74;78.66
13952;BME280;39535;52.192;9.886;2022-12-18T08:27:49;102459.63;;;-3.76;78.33
13952;BME280;39535;52.192;9.886;2022-12-18T08:30:16;102457.94;;;-3.76;78.09
13952;BME280;39535;52.192;9.886;2022-12-18T08:32:44;102452.06;;;-3.75;78.96
13952;BME280;39535;52.192;9.886;2022-12-18T08:35:11;102453.03;;;-3.73;78.59
13952;BME280;39535;52.192;9.886;2022-12-18T08:37:37;102457.81;;;-3.66;78.85
13952;BME280;39535;52.192;9.886;2022-12-18T08:40:05;102450.84;;;-3.56;78.31
13952;BME280;39535;52.192;9.886;2022-12-18T08:42:33;102462.78;;;-3.55;78.89
13952;BME280;39535;52.192;9.886;2022-12-18T08:45:17;102459.56;;;-3.53;78.00
13952;BME280;39535;52.192;9.886;2022-12-18T08:47:45;102462.66;;;-3.45;78.07
13952;BME280;39535;52.192;9.886;2022-12-18T08:50:11;102471.75;;;-3.37;77.84
13952;BME280;39535;52.192;9.886;2022-12-18T08:52:38;102473.66;;;-3.34;78.05
13952;BME280;39535;52.192;9.886;2022-12-18T08:55:05;102472.84;;;-3.33;77.83
13952;BME280;39535;52.192;9.886;2022-12-18T08:57:32;102493.28;;;-3.33;76.64
13952;BME280;39535;52.192;9.886;2022-12-18T08:59:58;102521.91;;;-3.26;76.16
13952;BME280;39535;52.192;9.886;2022-12-18T09:02:30;102539.91;;;-3.24;76.31
13952;BME280;39535;52.192;9.886;2022-12-18T09:04:58;102549.22;;;-3.13;76.27
13952;BME280;39535;52.192;9.886;2022-12-18T09:07:29;102552.88;;;-3.09;75.84
13952;BME280;39535;52.192;9.886;2022-12-18T09:09:56;102566.63;;;-3.07;76.65
13952;BME280;39535;52.192;9.886;2022-12-18T09:12:26;102549.31;;;-3.11;75.75
13952;BME280;39535;52.192;9.886;2022-12-18T09:14:53;102562.63;;;-3.04;75.70
13952;BME280;39535;52.192;9.886;2022-12-18T09:17:19;102570.53;;;-3.01;75.45
13952;BME280;39535;52.192;9.886;2022-12-18T09:19:46;102577.06;;;-2.92;75.77
13952;BME280;39535;52.192;9.886;2022-12-18T09:22:14;102588.28;;;-2.90;76.01
13952;BME280;39535;52.192;9.886;2022-12-18T09:24:42;102581.59;;;-2.88;75.20
13952;BME280;39535;52.192;9.886;2022-12-18T09:27:09;102586.72;;;-2.88;75.41
13952;BME280;39535;52.192;9.886;2022-12-18T09:29:35;102587.94;;;-2.83;74.88
13952;BME280;39535;52.192;9.886;2022-12-18T09:32:02;102594.47;;;-2.75;74.38
13952;BME280;39535;52.192;9.886;2022-12-18T09:34:28;102603.31;;;-2.70;74.04
13952;BME280;39535;52.192;9.886;2022-12-18T09:36:55;102613.78;;;-2.67;74.39
13952;BME280;39535;52.192;9.886;2022-12-18T09:39:24;102631.25;;;-2.73;73.89
13952;BME280;39535;52.192;9.886;2022-12-18T09:41:55;102648.13;;;-2.63;72.67
13952;BME280;39535;52.192;9.886;2022-12-18T09:44:25;102666.63;;;-2.54;72.49
13952;BME280;39535;52.192;9.886;2022-12-18T09:47:08;102684.63;;;-2.41;72.71
13952;BME280;39535;52.192;9.886;2022-12-18T09:49:39;102708.53;;;-2.40;72.13
13952;BME280;39535;52.192;9.886;2022-12-18T09:52:11;102719.41;;;-2.31;72.73
13952;BME280;39535;52.192;9.886;2022-12-18T09:54:41;102725.75;;;-2.26;72.47
13952;BME280;39535;52.192;9.886;2022-12-18T09:57:13;102727.63;;;-2.23;72.55
13952;BME280;39535;52.192;9.886;2022-12-18T09:59:44;102735.50;;;-2.20;72.26
13952;BME280;39535;52.192;9.886;2022-12-18T10:02:17;102693.16;;;-1.91;75.61
13952;BME280;39535;52.192;9.886;2022-12-18T10:04:55;102579.69;;;-1.52;80.51
13952;BME280;39535;52.192;9.886;2022-12-18T10:07:29;102419.56;;;-1.18;82.52
13952;BME280;39535;52.192;9.886;2022-12-18T10:10:06;102248.81;;;-0.72;89.47
13952;BME280;39535;52.192;9.886;2022-12-18T10:12:42;102124.97;;;-0.54;88.64
13952;BME280;39535;52.192;9.886;2022-12-18T10:15:24;102144.06;;;-0.49;83.49
13952;BME280;39535;52.192;9.886;2022-12-18T10:17:58;102188.19;;;-0.24;84.55
13952;BME280;39535;52.192;9.886;2022-12-18T10:20:32;102362.50;;;-0.27;77.22
13952;BME280;39535;52.192;9.886;2022-12-18T10:23:11;102423.63;;;-0.05;80.86
13952;BME280;39535;52.192;9.886;2022-12-18T10:25:47;102462.84;;;-0.07;73.02
13952;BME280;39535;52.192;9.886;2022-12-18T10:28:16;102541.00;;;0.13;75.06
13952;BME280;39535;52.192;9.886;2022-12-18T10:30:46;102499.69;;;0.39;75.10
13952;BME280;39535;52.192;9.886;2022-12-18T10:33:16;102457.06;;;0.74;78.48
13952;BME280;39535;52.192;9.886;2022-12-18T10:35:46;102543.94;;;0.65;72.80
13952;BME280;39535;52.192;9.886;2022-12-18T10:38:24;102553.44;;;0.97;76.92
13952;BME280;39535;52.192;9.886;2022-12-18T10:40:54;102637.25;;;0.94;72.76
13952;BME280;39535;52.192;9.886;2022-12-18T10:43:23;102668.72;;;0.90;69.23
13952;BME280;39535;52.192;9.886;2022-12-18T10:46:02;102739.28;;;0.80;67.59
13952;BME280;39535;52.192;9.886;2022-12-18T10:48:30;102835.59;;;0.57;67.29
13952;BME280;39535;52.192;9.886;2022-12-18T10:50:57;102832.38;;;0.46;68.30
13952;BME280;39535;52.192;9.886;2022-12-18T10:53:25;102863.94;;;0.30;65.94
13952;BME280;39535;52.192;9.886;2022-12-18T10:55:55;102930.03;;;0.33;70.43
13952;BME280;39535;52.192;9.886;2022-12-18T10:58:24;102851.97;;;0.44;71.60
13952;BME280;39535;52.192;9.886;2022-12-18T11:01:07;102829.09;;;0.49;71.43
13952;BME280;39535;52.192;9.886;2022-12-18T11:03:36;102768.34;;;0.64;74.42
13952;BME280;39535;52.192;9.886;2022-12-18T11:06:05;102787.63;;;0.43;65.33
13952;BME280;39535;52.192;9.886;2022-12-18T11:08:33;102914.88;;;0.51;68.19
13952;BME280;39535;52.192;9.886;2022-12-18T11:11:01;102890.38;;;0.56;72.75
13952;BME280;39535;52.192;9.886;2022-12-18T11:13:30;102823.97;;;0.49;69.45
13952;BME280;39535;52.192;9.886;2022-12-18T11:15:57;102790.41;;;0.61;69.98
13952;BME280;39535;52.192;9.886;2022-12-18T11:18:27;102822.75;;;0.57;69.16
13952;BME280;39535;52.192;9.886;2022-12-18T11:20:55;102870.56;;;0.40;66.10
13952;BME280;39535;52.192;9.886;2022-12-18T11:23:24;102889.50;;;0.42;67.16
13952;BME280;39535;52.192;9.886;2022-12-18T11:25:52;102888.78;;;0.58;71.25
13952;BME280;39535;52.192;9.886;2022-12-18T11:28:37;102811.53;;;0.70;70.66
13952;BME280;39535;52.192;9.886;2022-12-18T11:31:25;102846.91;;;0.74;69.28
13952;BME280;39535;52.192;9.886;2022-12-18T11:33:58;102802.22;;;0.87;72.40
13952;BME280;39535;52.192;9.886;2022-12-18T11:36:29;102751.44;;;0.97;73.48
13952;BME280;39535;52.192;9.886;2022-12-18T11:39:02;102687.22;;;0.99;73.72
13952;BME280;39535;52.192;9.886;2022-12-18T11:41:34;102698.06;;;0.78;68.98
13952;BME280;39535;52.192;9.886;2022-12-18T11:44:26;102728.28;;;0.83;73.09
13952;BME280;39535;52.192;9.886;2022-12-18T11:46:58;102745.38;;;0.52;67.59
13952;BME280;39535;52.192;9.886;2022-12-18T11:49:29;102784.97;;;0.41;68.30
13952;BME280;39535;52.192;9.886;2022-12-18T11:52:03;102767.69;;;0.38;68.46
13952;BME280;39535;52.192;9.886;2022-12-18T11:54:32;102742.25;;;0.43;70.53
13952;BME280;39535;52.192;9.886;2022-12-18T11:57:05;102757.81;;;0.31;69.27
13952;BME280;39535;52.192;9.886;2022-12-18T11:59:43;102759.16;;;0.25;69.30
13952;BME280;39535;52.192;9.886;2022-12-18T12:02:28;102717.53;;;0.45;73.04
13952;BME280;39535;52.192;9.886;2022-12-18T12:05:20;102648.47;;;0.50;72.90
13952;BME280;39535;52.192;9.886;2022-12-18T12:07:55;102526.38;;;0.73;76.12
13952;BME280;39535;52.192;9.886;2022-12-18T12:10:37;102410.09;;;0.93;76.41
13952;BME280;39535;52.192;9.886;2022-12-18T12:13:17;102415.78;;;1.04;76.77
13952;BME280;39535;52.192;9.886;2022-12-18T12:15:55;102418.91;;;1.15;76.77
13952;BME280;39535;52.192;9.886;2022-12-18T12:18:32;102434.59;;;1.19;76.41
13952;BME280;39535;52.192;9.886;2022-12-18T12:21:09;102383.47;;;1.26;77.49
13952;BME280;39535;52.192;9.886;2022-12-18T12:23:43;102416.03;;;1.25;72.47
13952;BME280;39535;52.192;9.886;2022-12-18T12:26:20;102520.22;;;1.17;72.59
13952;BME280;39535;52.192;9.886;2022-12-18T12:31:53;102240.88;;;1.38;84.07
13952;BME280;39535;52.192;9.886;2022-12-18T12:34:24;102177.75;;;1.27;83.03
13952;BME280;39535;52.192;9.886;2022-12-18T12:37:08;102039.50;;;1.43;88.42
13952;BME280;39535;52.192;9.886;2022-12-18T12:39:40;102017.59;;;1.31;84.81
13952;BME280;39535;52.192;9.886;2022-12-18T12:42:13;102070.44;;;1.25;80.81
13952;BME280;39535;52.192;9.886;2022-12-18T12:45:01;102215.16;;;1.21;80.00
13952;BME280;39535;52.192;9.886;2022-12-18T12:47:38;102190.81;;;1.32;80.17
13952;BME280;39535;52.192;9.886;2022-12-18T12:50:13;102215.38;;;1.43;78.06
13952;BME280;39535;52.192;9.886;2022-12-18T12:52:44;102268.28;;;1.38;73.30
13952;BME280;39535;52.192;9.886;2022-12-18T12:55:14;102444.00;;;1.19;68.86
13952;BME280;39535;52.192;9.886;2022-12-18T12:57:46;102519.16;;;1.13;69.63
13952;BME280;39535;52.192;9.886;2022-12-18T13:00:16;102553.69;;;1.02;68.16
13952;BME280;39535;52.192;9.886;2022-12-18T13:02:50;102638.31;;;0.97;68.17
13952;BME280;39535;52.192;9.886;2022-12-18T13:05:22;102664.28;;;1.02;72.99
13952;BME280;39535;52.192;9.886;2022-12-18T13:07:51;102591.38;;;1.02;69.86
13952;BME280;39535;52.192;9.886;2022-12-18T13:10:32;102652.16;;;0.85;68.05